createdAt,value
2019-04-22T00:02:42.288Z,5.62
2019-04-22T00:05:14.264Z,5.80
2019-04-22T00:08:01.630Z,5.62
2019-04-22T00:10:41.993Z,6.10
2019-04-22T00:13:10.417Z,6.03
2019-04-22T00:15:37.068Z,6.47
2019-04-22T00:20:35.340Z,5.87
2019-04-22T00:23:14.120Z,6.90
2019-04-22T00:25:52.041Z,7.17
2019-04-22T00:30:56.113Z,5.95
2019-04-22T00:33:26.523Z,6.03
2019-04-22T00:36:04.431Z,5.78
2019-04-22T00:38:42.168Z,5.63
2019-04-22T00:41:05.731Z,5.83
2019-04-22T00:43:45.856Z,5.63
2019-04-22T00:46:10.969Z,5.80
2019-04-22T00:48:57.284Z,6.00
2019-04-22T00:51:26.201Z,5.07
2019-04-22T00:53:56.109Z,5.90
2019-04-22T00:56:24.644Z,6.27
2019-04-22T00:58:59.126Z,6.47
2019-04-22T01:01:31.966Z,5.97
2019-04-22T01:04:12.502Z,6.23
2019-04-22T01:06:38.841Z,6.17
2019-04-22T01:09:13.668Z,6.93
2019-04-22T01:11:45.396Z,6.00
2019-04-22T01:14:21.949Z,5.87
2019-04-22T01:16:54.779Z,5.80
2019-04-22T01:19:36.683Z,5.13
2019-04-22T01:21:57.963Z,5.27
2019-04-22T01:24:26.423Z,5.60
2019-04-22T01:26:58.184Z,6.40
2019-04-22T01:29:26.200Z,5.33
2019-04-22T01:31:49.087Z,5.77
2019-04-22T01:34:36.384Z,5.67
2019-04-22T01:37:07.724Z,6.07
2019-04-22T01:39:49.857Z,5.97
2019-04-22T01:42:25.220Z,4.97
2019-04-22T01:44:56.978Z,5.23
2019-04-22T01:47:34.247Z,4.73
2019-04-22T01:50:06.141Z,5.30
2019-04-22T01:52:41.555Z,4.93
2019-04-22T01:55:19.005Z,5.20
2019-04-22T01:57:45.176Z,5.20
2019-04-22T02:00:05.041Z,5.63
2019-04-22T02:02:48.777Z,5.95
2019-04-22T02:05:24.530Z,5.50
2019-04-22T02:08:02.551Z,4.95
2019-04-22T02:10:36.043Z,4.80
2019-04-22T02:13:06.890Z,5.53
2019-04-22T02:15:45.095Z,4.85
2019-04-22T02:18:17.906Z,4.70
2019-04-22T02:20:45.487Z,5.27
2019-04-22T02:23:45.862Z,4.50
2019-04-22T02:26:23.015Z,4.20
2019-04-22T02:31:26.007Z,4.20
2019-04-22T02:36:22.616Z,4.23
2019-04-22T02:41:28.480Z,4.63
2019-04-22T02:44:13.513Z,4.40
2019-04-22T02:46:45.122Z,4.03
2019-04-22T02:49:10.949Z,4.10
2019-04-22T02:51:33.190Z,3.83
2019-04-22T02:59:14.845Z,4.67
2019-04-22T03:01:47.385Z,4.23
2019-04-22T03:04:23.704Z,4.33
2019-04-22T03:12:09.673Z,4.30
2019-04-22T03:14:48.306Z,3.97
2019-04-22T03:17:17.612Z,4.77
2019-04-22T03:22:16.699Z,4.27
2019-04-22T03:25:24.094Z,4.53
2019-04-22T03:27:27.514Z,4.70
2019-04-22T03:30:45.553Z,4.47
2019-04-22T03:33:04.952Z,4.57
2019-04-22T03:37:56.115Z,4.70
2019-04-22T03:40:30.811Z,4.60
2019-04-22T03:53:11.446Z,4.73
2019-04-22T03:55:45.079Z,4.70
2019-04-22T03:58:28.331Z,4.20
2019-04-22T04:00:47.469Z,4.70
2019-04-22T04:03:21.076Z,4.20
2019-04-22T04:05:57.876Z,4.40
2019-04-22T04:10:53.530Z,4.72
2019-04-22T04:13:33.848Z,4.63
2019-04-22T04:16:04.733Z,4.75
2019-04-22T04:18:47.461Z,4.83
2019-04-22T04:24:01.348Z,4.47
2019-04-22T04:26:33.546Z,4.80
2019-04-22T04:31:40.962Z,4.40
2019-04-22T04:34:06.516Z,4.42
2019-04-22T04:36:38.878Z,4.50
2019-04-22T04:39:05.550Z,4.37
2019-04-22T04:44:23.404Z,4.45
2019-04-22T04:46:49.736Z,4.20
2019-04-22T04:54:31.415Z,3.70
2019-04-22T04:56:56.728Z,3.27
2019-04-22T05:02:10.387Z,3.80
2019-04-22T05:04:53.308Z,4.30
2019-04-22T05:09:47.364Z,4.12
2019-04-22T05:12:25.291Z,3.50
2019-04-22T05:14:50.474Z,3.87
2019-04-22T05:17:29.266Z,4.00
2019-04-22T05:20:00.806Z,4.57
2019-04-22T05:22:29.811Z,4.03
2019-04-22T05:24:58.369Z,3.73
2019-04-22T05:27:34.173Z,4.65
2019-04-22T05:30:22.911Z,4.53
2019-04-22T05:32:39.986Z,5.08
2019-04-22T05:37:43.258Z,4.40
2019-04-22T05:40:22.098Z,3.83
2019-04-22T05:42:53.144Z,4.40
2019-04-22T05:45:23.100Z,4.25
2019-04-22T05:50:25.026Z,3.90
2019-04-22T05:53:03.318Z,3.47
2019-04-22T05:55:36.098Z,4.07
2019-04-22T05:58:10.782Z,3.50
2019-04-22T06:01:07.190Z,3.90
2019-04-22T06:03:11.909Z,3.47
2019-04-22T06:05:53.801Z,3.73
2019-04-22T06:08:22.194Z,3.23
2019-04-22T06:10:55.680Z,3.20
2019-04-22T06:13:23.303Z,3.13
2019-04-22T06:15:59.017Z,3.43
2019-04-22T06:18:34.149Z,3.27
2019-04-22T06:21:11.452Z,3.50
2019-04-22T06:23:42.146Z,3.13
2019-04-22T06:26:22.330Z,4.10
2019-04-22T06:28:51.917Z,2.90
2019-04-22T06:33:56.184Z,3.57
2019-04-22T06:36:29.512Z,3.40
2019-04-22T06:39:05.131Z,3.67
2019-04-22T06:41:39.082Z,3.30
2019-04-22T06:44:10.808Z,3.17
2019-04-22T06:46:39.969Z,3.20
2019-04-22T06:49:19.562Z,3.30
2019-04-22T06:51:46.772Z,3.30
2019-04-22T06:54:22.294Z,3.20
2019-04-22T06:56:54.649Z,3.70
2019-04-22T06:59:26.460Z,3.27
2019-04-22T07:04:30.268Z,3.73
2019-04-22T07:12:11.634Z,3.50
2019-04-22T07:14:47.260Z,2.72
2019-04-22T07:17:15.605Z,3.50
2019-04-22T07:20:04.319Z,3.80
2019-04-22T07:22:24.282Z,3.90
2019-04-22T07:24:58.293Z,3.63
2019-04-22T07:27:27.844Z,3.63
2019-04-22T07:30:09.255Z,2.90
2019-04-22T07:33:01.128Z,3.30
2019-04-22T07:35:16.891Z,2.80
2019-04-22T07:37:43.558Z,2.97
2019-04-22T07:40:16.895Z,3.43
2019-04-22T07:42:49.397Z,3.10
2019-04-22T07:45:25.447Z,2.70
2019-04-22T07:48:09.524Z,2.90
2019-04-22T07:50:49.397Z,2.58
2019-04-22T07:53:05.461Z,3.65
2019-04-22T07:55:39.774Z,3.83
2019-04-22T07:58:11.724Z,2.90
2019-04-22T08:00:52.742Z,3.23
2019-04-22T08:03:29.104Z,3.17
2019-04-22T08:06:02.940Z,3.00
2019-04-22T08:08:26.031Z,2.97
2019-04-22T08:11:11.775Z,2.50
2019-04-22T08:16:10.586Z,2.65
2019-04-22T08:18:39.056Z,3.00
2019-04-22T08:21:12.373Z,2.37
2019-04-22T08:24:01.257Z,2.70
2019-04-22T08:26:19.311Z,3.23
2019-04-22T08:28:56.126Z,2.70
2019-04-22T08:31:32.343Z,3.00
2019-04-22T08:34:01.838Z,2.60
2019-04-22T08:36:31.721Z,2.67
2019-04-22T08:39:07.902Z,2.80
2019-04-22T08:41:43.564Z,2.90
2019-04-22T08:44:17.410Z,3.00
2019-04-22T08:47:04.333Z,2.90
2019-04-22T08:49:10.162Z,2.93
2019-04-22T08:51:49.491Z,3.00
2019-04-22T08:54:28.359Z,2.60
2019-04-22T08:56:59.336Z,2.87
2019-04-22T08:59:36.917Z,3.30
2019-04-22T09:02:09.328Z,3.42
2019-04-22T09:04:30.866Z,2.63
2019-04-22T09:09:45.956Z,3.37
2019-04-22T09:12:25.083Z,2.60
2019-04-22T09:14:47.283Z,2.50
2019-04-22T09:17:28.584Z,2.83
2019-04-22T09:20:04.641Z,2.70
2019-04-22T09:22:26.364Z,3.20
2019-04-22T09:25:03.142Z,2.70
2019-04-22T09:27:39.980Z,2.73
2019-04-22T09:30:15.720Z,3.10
2019-04-22T09:32:45.508Z,3.15
2019-04-22T09:35:21.358Z,2.90
2019-04-22T09:38:00.273Z,2.40
2019-04-22T09:40:22.427Z,2.63
2019-04-22T09:42:56.050Z,2.23
2019-04-22T09:45:29.429Z,3.27
2019-04-22T09:48:08.796Z,2.50
2019-04-22T09:53:09.392Z,2.55
2019-04-22T09:55:42.580Z,3.20
2019-04-22T09:58:20.181Z,3.52
2019-04-22T10:03:51.691Z,3.40
2019-04-22T10:06:33.565Z,3.03
2019-04-22T10:14:01.176Z,2.70
2019-04-22T10:19:04.238Z,3.57
2019-04-22T10:21:44.664Z,2.43
2019-04-22T10:24:12.134Z,3.57
2019-04-22T10:26:43.916Z,2.97
2019-04-22T10:29:19.909Z,3.67
2019-04-22T10:34:15.674Z,3.77
2019-04-22T10:36:33.167Z,3.40
2019-04-22T10:39:06.374Z,3.40
2019-04-22T10:41:40.708Z,3.63
2019-04-22T10:44:13.021Z,3.67
2019-04-22T10:46:46.323Z,3.12
2019-04-22T10:49:18.334Z,3.50
2019-04-22T10:51:50.778Z,3.43
2019-04-22T10:54:23.350Z,3.47
2019-04-22T10:56:56.921Z,3.13
2019-04-22T10:59:28.831Z,3.77
2019-04-22T11:02:01.354Z,3.50
2019-04-22T11:04:34.253Z,3.60
2019-04-22T11:07:10.493Z,4.00
2019-04-22T11:09:50.731Z,3.60
2019-04-22T11:12:16.794Z,3.95
2019-04-22T11:14:45.430Z,3.47
2019-04-22T11:17:17.715Z,3.30
2019-04-22T11:19:49.940Z,3.47
2019-04-22T11:22:26.320Z,4.13
2019-04-22T11:24:56.349Z,3.50
2019-04-22T11:27:26.824Z,4.13
2019-04-22T11:29:59.469Z,4.10
2019-04-22T11:32:30.851Z,4.13
2019-04-22T11:35:03.639Z,3.90
2019-04-22T11:37:36.785Z,3.87
2019-04-22T11:40:19.265Z,4.03
2019-04-22T11:42:41.412Z,4.13
2019-04-22T11:45:15.328Z,4.50
2019-04-22T11:47:47.585Z,4.30
2019-04-22T11:50:21.805Z,3.33
2019-04-22T11:52:53.203Z,3.80
2019-04-22T11:55:24.732Z,4.00
2019-04-22T11:57:56.347Z,4.50
2019-04-22T12:00:33.064Z,4.40
2019-04-22T12:03:05.170Z,4.50
2019-04-22T12:05:37.581Z,3.17
2019-04-22T12:08:09.378Z,3.20
2019-04-22T12:10:46.919Z,2.20
2019-04-22T12:13:14.014Z,2.95
2019-04-22T12:15:47.035Z,3.03
2019-04-22T12:18:19.517Z,2.93
2019-04-22T12:20:51.019Z,2.62
2019-04-22T12:23:23.133Z,2.93
2019-04-22T12:26:02.079Z,2.63
2019-04-22T12:28:28.830Z,2.47
2019-04-22T12:31:01.525Z,2.93
2019-04-22T12:33:33.071Z,2.67
2019-04-22T12:36:04.718Z,2.40
2019-04-22T12:38:37.773Z,2.10
2019-04-22T12:41:11.979Z,2.70
2019-04-22T12:43:43.088Z,2.50
2019-04-22T12:46:16.219Z,2.37
2019-04-22T12:48:47.964Z,2.20
2019-04-22T12:51:20.832Z,1.90
2019-04-22T12:53:52.860Z,1.67
2019-04-22T12:56:25.672Z,1.43
2019-04-22T12:58:57.186Z,1.80
2019-04-22T13:01:29.013Z,1.60
2019-04-22T13:04:05.733Z,1.30
2019-04-22T13:06:35.429Z,1.23
2019-04-22T13:09:08.816Z,1.90
2019-04-22T13:11:40.705Z,1.60
2019-04-22T13:14:12.767Z,1.50
2019-04-22T13:16:44.943Z,1.63
2019-04-22T13:19:18.879Z,1.57
2019-04-22T13:21:50.877Z,1.20
2019-04-22T13:24:23.791Z,1.93
2019-04-22T13:26:55.165Z,1.20
2019-04-22T13:29:27.580Z,1.30
2019-04-22T13:31:58.693Z,1.20
2019-04-22T13:34:39.583Z,1.30
2019-04-22T13:37:05.139Z,1.40
2019-04-22T13:39:36.810Z,1.10
2019-04-22T13:42:12.407Z,1.80
2019-04-22T13:44:41.790Z,1.43
2019-04-22T13:47:30.839Z,1.50
2019-04-22T13:50:41.207Z,1.93
2019-04-22T13:55:40.878Z,1.87
2019-04-22T13:57:44.066Z,1.67
2019-04-22T14:00:00.694Z,1.83
2019-04-22T14:02:55.156Z,1.83
2019-04-22T14:05:28.614Z,1.37
2019-04-22T14:08:02.567Z,1.37
2019-04-22T14:10:38.624Z,1.50
2019-04-22T14:13:10.004Z,1.47
2019-04-22T14:15:43.852Z,1.50
2019-04-22T14:18:19.078Z,1.63
2019-04-22T14:20:51.221Z,1.42
2019-04-22T14:23:24.893Z,1.80
2019-04-22T14:25:56.753Z,1.55
2019-04-22T14:28:29.277Z,1.40
2019-04-22T14:31:08.598Z,1.93
2019-04-22T14:33:43.054Z,1.87
2019-04-22T14:36:15.129Z,1.67
2019-04-22T14:38:47.950Z,1.70
2019-04-22T14:41:39.037Z,1.37
2019-04-22T14:45:04.966Z,2.00
2019-04-22T14:46:56.956Z,1.50
2019-04-22T14:49:26.204Z,1.20
2019-04-22T14:51:54.830Z,1.27
2019-04-22T14:54:23.960Z,1.20
2019-04-22T14:56:40.663Z,1.53
2019-04-22T14:59:13.359Z,1.33
2019-04-22T15:01:45.702Z,1.70
2019-04-22T15:04:17.531Z,1.80
2019-04-22T15:06:50.342Z,1.50
2019-04-22T15:09:24.112Z,1.43
2019-04-22T15:12:09.407Z,1.60
2019-04-22T15:14:29.963Z,1.60
2019-04-22T15:17:27.096Z,1.57
2019-04-22T15:20:05.988Z,1.57
2019-04-22T15:22:38.845Z,1.43
2019-04-22T15:25:12.476Z,1.20
2019-04-22T15:27:43.945Z,1.47
2019-04-22T15:30:15.293Z,1.30
2019-04-22T15:32:47.495Z,1.52
2019-04-22T15:35:19.468Z,1.27
2019-04-22T15:37:51.203Z,1.17
2019-04-22T15:40:22.718Z,2.50
2019-04-22T15:42:55.030Z,1.00
2019-04-22T15:45:26.399Z,1.00
2019-04-22T15:47:59.800Z,0.80
2019-04-22T15:50:31.168Z,0.90
2019-04-22T15:53:04.552Z,1.03
2019-04-22T15:55:38.926Z,1.22
2019-04-22T15:58:11.871Z,1.27
2019-04-22T16:00:59.339Z,0.80
2019-04-22T16:03:20.413Z,1.10
2019-04-22T16:05:52.280Z,1.90
2019-04-22T16:08:24.696Z,1.03
2019-04-22T16:10:57.773Z,0.82
2019-04-22T16:13:32.326Z,0.80
2019-04-22T16:16:02.737Z,0.97
2019-04-22T16:18:33.854Z,0.70
2019-04-22T16:21:06.968Z,1.00
2019-04-22T16:23:52.114Z,0.87
2019-04-22T16:26:42.479Z,1.10
2019-04-22T16:29:15.852Z,1.10
2019-04-22T16:31:49.571Z,1.07
2019-04-22T16:34:21.688Z,0.90
2019-04-22T16:36:54.489Z,0.90
2019-04-22T16:39:26.924Z,1.07
2019-04-22T16:42:00.442Z,0.90
2019-04-22T16:44:34.400Z,0.97
2019-04-22T16:47:05.770Z,0.70
2019-04-22T16:49:37.375Z,1.10
2019-04-22T16:52:09.997Z,1.00
2019-04-22T16:54:42.097Z,0.97
2019-04-22T16:57:13.797Z,1.23
2019-04-22T16:59:46.587Z,0.93
2019-04-22T17:02:56.132Z,1.13
2019-04-22T17:05:52.142Z,1.37
2019-04-22T17:08:24.601Z,1.50
2019-04-22T17:10:56.053Z,1.00
2019-04-22T17:13:31.998Z,1.27
2019-04-22T17:16:02.378Z,1.27
2019-04-22T17:18:35.067Z,1.60
2019-04-22T17:21:08.679Z,1.30
2019-04-22T17:23:41.313Z,1.50
2019-04-22T17:26:12.664Z,1.10
2019-04-22T17:28:43.940Z,1.50
2019-04-22T17:31:16.437Z,1.30
2019-04-22T17:33:48.838Z,1.37
2019-04-22T17:36:22.595Z,1.20
2019-04-22T17:39:11.006Z,1.97
2019-04-22T17:41:46.443Z,1.23
2019-04-22T17:44:37.808Z,1.63
2019-04-22T17:47:04.960Z,1.47
2019-04-22T17:49:53.795Z,1.40
2019-04-22T17:52:25.131Z,1.50
2019-04-22T17:54:51.637Z,1.47
2019-04-22T17:57:32.536Z,0.97
2019-04-22T18:00:07.007Z,1.27
2019-04-22T18:02:32.322Z,1.47
2019-04-22T18:05:00.959Z,1.10
2019-04-22T18:08:03.810Z,1.47
2019-04-22T18:13:01.865Z,0.90
2019-04-22T18:15:23.788Z,2.07
2019-04-22T18:18:09.125Z,1.40
2019-04-22T18:20:30.513Z,2.20
2019-04-22T18:22:56.979Z,1.37
2019-04-22T18:25:41.720Z,1.67
2019-04-22T18:28:20.311Z,2.13
2019-04-22T18:30:41.184Z,1.30
2019-04-22T18:33:19.026Z,2.00
2019-04-22T18:35:48.839Z,1.50
2019-04-22T18:38:44.033Z,1.87
2019-04-22T18:41:02.400Z,1.27
2019-04-22T18:43:35.707Z,1.07
2019-04-22T18:46:11.387Z,1.42
2019-04-22T18:48:40.509Z,1.23
2019-04-22T18:51:27.671Z,1.30
2019-04-22T18:54:09.518Z,1.07
2019-04-22T18:56:39.148Z,1.00
2019-04-22T18:59:03.704Z,0.83
2019-04-22T19:01:25.928Z,1.40
2019-04-22T19:04:09.023Z,1.90
2019-04-22T19:06:55.586Z,1.47
2019-04-22T19:09:38.214Z,1.37
2019-04-22T19:12:18.104Z,1.47
2019-04-22T19:14:45.557Z,1.17
2019-04-22T19:17:28.547Z,1.80
2019-04-22T19:19:49.746Z,1.30
2019-04-22T19:22:16.310Z,1.03
2019-04-22T19:24:47.327Z,1.27
2019-04-22T19:27:26.699Z,1.30
2019-04-22T19:29:57.818Z,1.03
2019-04-22T19:32:35.376Z,1.73
2019-04-22T19:35:03.767Z,1.70
2019-04-22T19:37:32.696Z,1.10
2019-04-22T19:40:34.211Z,1.40
2019-04-22T19:42:54.747Z,1.57
2019-04-22T19:45:15.653Z,1.90
2019-04-22T19:47:58.535Z,2.03
2019-04-22T19:50:31.219Z,1.83
2019-04-22T19:52:59.534Z,2.00
2019-04-22T19:55:29.483Z,1.80
2019-04-22T19:58:00.097Z,1.80
2019-04-22T20:01:13.455Z,2.20
2019-04-22T20:06:41.357Z,2.05
2019-04-22T20:09:20.615Z,2.37
2019-04-22T20:11:53.005Z,2.13
2019-04-22T20:14:22.984Z,2.47
2019-04-22T20:16:48.991Z,2.33
2019-04-22T20:19:41.409Z,2.37
2019-04-22T20:22:03.400Z,3.10
2019-04-22T20:24:22.654Z,2.70
2019-04-22T20:27:13.636Z,2.85
2019-04-22T20:29:42.192Z,3.22
2019-04-22T20:32:20.232Z,2.27
2019-04-22T20:34:51.277Z,2.90
2019-04-22T20:37:29.893Z,3.33
2019-04-22T20:39:57.090Z,3.10
2019-04-22T20:42:48.660Z,3.85
2019-04-22T20:45:04.213Z,3.87
2019-04-22T20:47:33.381Z,3.90
2019-04-22T20:50:10.898Z,3.87
2019-04-22T20:55:13.123Z,3.87
2019-04-22T20:57:53.559Z,4.27
2019-04-22T21:00:19.799Z,4.00
2019-04-22T21:02:48.883Z,3.97
2019-04-22T21:05:24.846Z,3.60
2019-04-22T21:08:06.346Z,4.10
2019-04-22T21:10:32.362Z,3.40
2019-04-22T21:13:05.510Z,4.23
2019-04-22T21:15:53.132Z,4.53
2019-04-22T21:18:15.654Z,4.00
2019-04-22T21:20:51.773Z,3.90
2019-04-22T21:23:21.632Z,4.87
2019-04-22T21:25:55.281Z,4.70
2019-04-22T21:28:33.188Z,4.70
2019-04-22T21:31:04.683Z,4.87
2019-04-22T21:33:31.352Z,4.90
2019-04-22T21:36:30.222Z,5.67
2019-04-22T21:38:43.649Z,5.17
2019-04-22T21:41:19.003Z,5.63
2019-04-22T21:43:52.658Z,5.60
2019-04-22T21:46:27.885Z,6.20
2019-04-22T21:48:59.807Z,6.07
2019-04-22T21:51:39.367Z,6.27
2019-04-22T21:54:06.901Z,6.03
2019-04-22T21:57:11.804Z,7.03
2019-04-22T21:59:30.980Z,6.83
2019-04-22T22:02:09.912Z,7.23
2019-04-22T22:04:41.325Z,7.63
2019-04-22T22:07:05.330Z,7.30
2019-04-22T22:09:49.008Z,7.43
2019-04-22T22:12:26.528Z,7.10
2019-04-22T22:14:58.866Z,7.17
2019-04-22T22:17:28.301Z,7.60
2019-04-22T22:19:57.954Z,6.70
2019-04-22T22:22:46.606Z,7.33
2019-04-22T22:25:14.373Z,7.33
2019-04-22T22:27:40.543Z,7.43
2019-04-22T22:30:38.767Z,7.67
2019-04-22T22:32:53.812Z,7.63
2019-04-22T22:35:24.501Z,7.70
2019-04-22T22:37:57.625Z,8.37
2019-04-22T22:40:19.901Z,7.27
2019-04-22T22:42:51.473Z,6.90
2019-04-22T22:45:34.877Z,7.12
2019-04-22T22:48:21.858Z,7.73
2019-04-22T22:50:49.211Z,6.90
2019-04-22T22:53:36.970Z,6.90
2019-04-22T22:55:57.983Z,6.90
2019-04-22T22:58:37.532Z,7.80
2019-04-22T23:01:06.452Z,7.40
2019-04-22T23:06:20.604Z,6.60
2019-04-22T23:08:52.693Z,7.43
2019-04-22T23:11:41.843Z,6.57
2019-04-22T23:13:57.788Z,7.17
2019-04-22T23:16:18.245Z,6.63
2019-04-22T23:18:57.670Z,6.78
2019-04-22T23:21:38.528Z,8.10
2019-04-22T23:24:41.441Z,7.40
2019-04-22T23:27:08.207Z,7.05
2019-04-22T23:29:57.531Z,7.55
2019-04-22T23:32:31.776Z,7.42
2019-04-22T23:35:16.699Z,7.87
2019-04-22T23:37:52.372Z,6.90
2019-04-22T23:40:35.758Z,6.80
2019-04-22T23:43:00.291Z,7.42
2019-04-22T23:45:33.336Z,7.23
2019-04-22T23:59:14.900Z,7.17
